Baihuikeng, China

3:52 AM CST on October 21, 2017 (GMT +0800)
EasyWeather-WIFIDEBC | | Change Station

Elev 104 ft 22.61 °N, 114.12 °E | Updated 3 seconds ago

Partly Cloudy
Partly Cloudy
77.7 °F
Feels Like 80 °F
N
0.0
Wind Variable Wind from SE
Gusts 0.0 mph

Today
High -- | Low -- °F
--% Chance of Precip.
Yesterday
High -- | Low -- °F
Precip. -- in
Pressure 29.89 in
Visibility 6.2 miles
Clouds Few 3000 ft
Scattered Clouds 3500 ft
Heat Index 80 °F
Dew Point 66 °F
Humidity 67%
Rainfall 3.81 in
Snow Depth Not available.
6:22 AM 5:53 PM
New Moon, 1% visible
METAR VHHH 201930Z 01011KT 9999 FEW030 SCT035 23/15 Q1012 NOSIG
Pressure 29.89 in
Visibility 6.2 miles
Clouds Few 3000 ft
Scattered Clouds 3500 ft
Heat Index 80 °F
Dew Point 66 °F
Humidity 67%
Rainfall 3.81 in
Snow Depth Not available.
6:22 AM 5:53 PM
New Moon, 1% visible
METAR VHHH 201930Z 01011KT 9999 FEW030 SCT035 23/15 Q1012 NOSIG

Get Severe Weather Alerts

Thanks for signing up!

Be on the lookout for a verification email in your inbox.

You'll start receiving the daily forecast at 6 AM.

×

10-Day Weather Forecast

No radar image for this location.
×

Almanac

Astronomy

Oct. 21, 2017 Rise Set
Actual Time
Civil Twilight
Nautical Twilight
Astronomical Twilight
Moon
Length of Visible Light
Length of Day
Tomorrow will be .
, % of the Moon is Illuminated

Today's Extremes

Country Highs Country Lows

Community

WunderPhotos

Category 6

Welcome to Category 6. This is the collective home for Weather Underground's featured writeups by Dr. Jeff Masters (right), Bob Henson (left), Chris Burt, and other regular contributors.

Nearby

Air Quality

  Air Quality AQ Index Pollutant
Not available.

Snow Depth

Station Depth Elevation

Earthquake Activity

City Distance Mag. Time & Date
Minimum magnitude displayed is 2.5.

Coastal Water Temperatures

Place Temperature

Stations

Nearby Weather Stations

Station Location Temp. Windchill Dew Point Humidity Wind Precip. Elev Updated Type